createdAt,value
2018-07-11T00:01:47.915Z,62.43
2018-07-11T00:04:17.054Z,62.56
2018-07-11T00:06:46.130Z,62.86
2018-07-11T00:09:15.372Z,63.28
2018-07-11T00:11:44.497Z,63.26
2018-07-11T00:14:13.594Z,62.76
2018-07-11T00:16:48.013Z,63.60
2018-07-11T00:19:17.118Z,63.69
2018-07-11T00:21:47.078Z,63.92
2018-07-11T00:24:16.261Z,64.10
2018-07-11T00:26:45.353Z,64.36
2018-07-11T00:29:14.452Z,64.09
2018-07-11T00:31:43.568Z,64.51
2018-07-11T00:34:13.459Z,64.48
2018-07-11T00:36:42.551Z,64.55
2018-07-11T00:39:11.678Z,64.98
2018-07-11T00:41:40.772Z,65.15
2018-07-11T00:44:09.948Z,65.36
2018-07-11T00:46:39.042Z,65.57
2018-07-11T00:49:08.181Z,65.80
2018-07-11T00:51:37.284Z,65.92
2018-07-11T00:54:06.651Z,66.55
2018-07-11T00:56:35.788Z,66.74
2018-07-11T00:59:38.745Z,66.94
2018-07-11T01:02:08.125Z,66.95
2018-07-11T01:04:55.602Z,67.35
2018-07-11T01:07:27.275Z,67.34
2018-07-11T01:09:56.360Z,67.89
2018-07-11T01:12:25.487Z,67.98
2018-07-11T01:14:54.554Z,68.29
2018-07-11T01:17:28.913Z,68.65
2018-07-11T01:19:58.004Z,68.76
2018-07-11T01:22:27.067Z,69.13
2018-07-11T01:24:56.191Z,69.47
2018-07-11T01:27:25.308Z,69.73
2018-07-11T01:29:54.411Z,69.52
2018-07-11T01:32:23.959Z,70.20
2018-07-11T01:34:53.033Z,69.97
2018-07-11T01:37:23.234Z,70.73
2018-07-11T01:39:52.676Z,71.15
2018-07-11T01:42:21.775Z,71.21
2018-07-11T01:44:57.160Z,71.11
2018-07-11T01:47:26.284Z,71.33
2018-07-11T01:49:55.335Z,71.83
2018-07-11T01:52:35.733Z,71.94
2018-07-11T01:55:04.838Z,71.69
2018-07-11T01:57:33.951Z,72.15
2018-07-11T02:00:03.099Z,72.37
2018-07-11T02:02:32.234Z,73.00
2018-07-11T02:05:01.449Z,73.26
2018-07-11T02:07:30.555Z,73.71
2018-07-11T02:09:59.700Z,73.93
2018-07-11T02:12:28.784Z,74.64
2018-07-11T02:15:03.575Z,74.47
2018-07-11T02:17:33.186Z,75.67
2018-07-11T02:20:02.361Z,75.30
2018-07-11T02:22:31.502Z,75.12
2018-07-11T02:25:01.997Z,75.37
2018-07-11T02:27:31.188Z,75.40
2018-07-11T02:30:17.630Z,75.65
2018-07-11T02:32:50.650Z,76.68
2018-07-11T02:35:19.763Z,76.54
2018-07-11T02:37:49.685Z,76.89
2018-07-11T02:40:18.731Z,77.54
2018-07-11T02:42:47.878Z,77.10
2018-07-11T02:45:16.983Z,77.44
2018-07-11T02:47:46.095Z,77.15
2018-07-11T02:50:15.227Z,77.40
2018-07-11T02:52:44.351Z,77.54
2018-07-11T02:55:13.453Z,77.92
2018-07-11T02:57:42.540Z,77.31
2018-07-11T03:00:11.626Z,78.16
2018-07-11T03:02:40.750Z,77.86
2018-07-11T03:05:09.873Z,78.28
2018-07-11T03:07:39.044Z,78.42
2018-07-11T03:10:08.114Z,78.59
2018-07-11T03:12:37.241Z,78.85
2018-07-11T03:15:06.359Z,78.24
2018-07-11T03:17:35.466Z,79.17
2018-07-11T03:20:04.709Z,79.31
2018-07-11T03:22:33.994Z,79.55
2018-07-11T03:25:03.058Z,79.61
2018-07-11T03:27:32.145Z,80.50
2018-07-11T03:30:01.225Z,80.62
2018-07-11T03:32:30.357Z,80.91
2018-07-11T03:34:59.454Z,81.33
2018-07-11T03:37:28.526Z,80.90
2018-07-11T03:39:57.773Z,80.97
2018-07-11T03:42:26.881Z,81.65
2018-07-11T03:44:55.957Z,81.54
2018-07-11T03:47:25.068Z,81.75
2018-07-11T03:49:54.184Z,81.76
2018-07-11T03:52:23.252Z,82.10
2018-07-11T03:54:52.419Z,81.90
2018-07-11T03:57:21.541Z,82.36
2018-07-11T03:59:50.614Z,82.55
2018-07-11T04:02:19.702Z,82.86
2018-07-11T04:04:48.794Z,82.23
2018-07-11T04:07:17.921Z,82.40
2018-07-11T04:09:47.002Z,82.50
2018-07-11T04:12:16.096Z,82.88
2018-07-11T04:14:45.183Z,82.67
2018-07-11T04:17:14.247Z,82.55
2018-07-11T04:19:43.335Z,82.34
2018-07-11T04:22:12.432Z,82.18
2018-07-11T04:24:41.586Z,81.74
2018-07-11T04:27:10.889Z,81.72
2018-07-11T04:29:39.964Z,81.78
2018-07-11T04:32:09.082Z,81.80
2018-07-11T04:34:38.149Z,81.78
2018-07-11T04:37:07.919Z,81.99
2018-07-11T04:39:37.009Z,81.46
2018-07-11T04:42:06.135Z,81.25
2018-07-11T04:44:35.242Z,81.26
2018-07-11T04:47:04.923Z,80.99
2018-07-11T04:49:34.084Z,80.50
2018-07-11T04:52:03.713Z,80.14
2018-07-11T04:54:33.100Z,80.08
2018-07-11T04:57:02.209Z,80.02
2018-07-11T04:59:31.477Z,79.55
2018-07-11T05:02:00.555Z,79.62
2018-07-11T05:04:29.726Z,79.76
2018-07-11T05:06:58.858Z,79.53
2018-07-11T05:09:27.945Z,79.39
2018-07-11T05:11:57.055Z,79.63
2018-07-11T05:14:26.113Z,79.37
2018-07-11T05:16:55.221Z,80.07
2018-07-11T05:19:24.536Z,79.20
2018-07-11T05:21:53.838Z,79.73
2018-07-11T05:24:22.973Z,79.92
2018-07-11T05:26:52.052Z,80.64
2018-07-11T05:29:21.137Z,80.15
2018-07-11T05:31:50.229Z,80.78
2018-07-11T05:34:19.369Z,80.37
2018-07-11T05:36:48.470Z,80.88
2018-07-11T05:39:17.576Z,80.48
2018-07-11T05:41:46.803Z,80.96
2018-07-11T05:44:15.900Z,80.04
2018-07-11T05:46:44.963Z,80.40
2018-07-11T05:49:14.073Z,80.47
2018-07-11T05:51:43.298Z,80.15
2018-07-11T05:54:12.425Z,80.43
2018-07-11T05:56:41.515Z,80.16
2018-07-11T05:59:10.635Z,79.83
2018-07-11T06:01:39.733Z,80.05
2018-07-11T06:04:08.888Z,79.98
2018-07-11T06:06:37.943Z,80.07
2018-07-11T06:09:07.404Z,79.12
2018-07-11T06:11:36.515Z,79.05
2018-07-11T06:14:05.574Z,78.85
2018-07-11T06:16:34.692Z,78.47
2018-07-11T06:19:03.876Z,78.23
2018-07-11T06:21:33.035Z,77.80
2018-07-11T06:24:02.800Z,77.04
2018-07-11T06:26:32.207Z,76.98
2018-07-11T06:29:01.344Z,77.45
2018-07-11T06:31:30.457Z,76.97
2018-07-11T06:33:59.546Z,76.30
2018-07-11T06:36:28.642Z,76.33
2018-07-11T06:38:57.715Z,75.84
2018-07-11T06:41:26.835Z,75.95
2018-07-11T06:43:55.931Z,75.98
2018-07-11T06:46:25.019Z,75.99
2018-07-11T06:48:54.130Z,75.57
2018-07-11T06:51:24.168Z,73.62
2018-07-11T06:53:53.263Z,73.33
2018-07-11T06:56:22.385Z,72.34
2018-07-11T06:58:51.516Z,72.34
2018-07-11T07:01:21.595Z,71.93
2018-07-11T07:03:50.708Z,71.36
2018-07-11T07:06:19.796Z,72.20
2018-07-11T07:08:48.940Z,73.19
2018-07-11T07:11:18.026Z,73.09
2018-07-11T07:13:47.169Z,73.83
2018-07-11T07:16:16.246Z,73.51
2018-07-11T07:18:45.378Z,72.56
2018-07-11T07:21:14.432Z,72.79
2018-07-11T07:23:43.620Z,72.89
2018-07-11T07:26:12.792Z,72.67
2018-07-11T07:28:41.860Z,71.59
2018-07-11T07:31:10.963Z,71.70
2018-07-11T07:33:40.039Z,71.27
2018-07-11T07:36:09.151Z,70.86
2018-07-11T07:38:41.716Z,70.57
2018-07-11T07:41:11.213Z,70.29
2018-07-11T07:43:41.911Z,69.90
2018-07-11T07:46:11.041Z,69.80
2018-07-11T07:48:40.146Z,69.36
2018-07-11T07:51:09.250Z,68.76
2018-07-11T07:53:38.404Z,67.86
2018-07-11T07:56:07.674Z,67.74
2018-07-11T07:58:36.806Z,67.36
2018-07-11T08:01:05.930Z,67.46
2018-07-11T08:03:35.625Z,67.38
2018-07-11T08:06:04.744Z,66.36
2018-07-11T08:08:33.834Z,66.66
2018-07-11T08:11:02.967Z,65.89
2018-07-11T08:13:32.045Z,65.34
2018-07-11T08:16:01.148Z,64.67
2018-07-11T08:18:30.232Z,63.49
2018-07-11T08:20:59.359Z,62.00
2018-07-11T08:23:41.626Z,61.10
2018-07-11T08:26:22.374Z,61.00
2018-07-11T08:29:29.225Z,61.02
2018-07-11T08:32:13.666Z,61.65
2018-07-11T08:35:01.777Z,61.08
2018-07-11T08:39:45.107Z,59.94
2018-07-11T08:42:20.970Z,57.13
2018-07-11T08:47:07.780Z,55.04
2018-07-11T08:49:49.725Z,53.99
2018-07-11T08:52:31.789Z,53.60
2018-07-11T08:56:27.080Z,53.06
2018-07-11T09:01:12.426Z,53.67
2018-07-11T09:04:07.535Z,52.77
2018-07-11T09:06:47.700Z,51.84
2018-07-11T09:09:28.462Z,52.12
2018-07-11T09:13:35.979Z,51.64
2018-07-11T09:17:17.852Z,50.18
2018-07-11T09:23:04.051Z,49.10
2018-07-11T09:25:33.174Z,47.18
2018-07-11T09:28:02.302Z,47.56
2018-07-11T09:30:31.399Z,47.97
2018-07-11T09:33:00.461Z,47.00
2018-07-11T09:35:29.553Z,47.10
2018-07-11T09:37:58.649Z,47.57
2018-07-11T09:40:27.765Z,47.75
2018-07-11T09:42:57.152Z,46.38
2018-07-11T09:45:26.276Z,45.83
2018-07-11T09:47:55.418Z,45.20
2018-07-11T09:50:24.586Z,46.41
2018-07-11T09:52:53.725Z,46.66
2018-07-11T09:55:22.817Z,45.38
2018-07-11T09:57:52.045Z,43.82
2018-07-11T10:00:26.373Z,42.76
2018-07-11T10:02:55.496Z,43.19
2018-07-11T10:05:24.580Z,43.09
2018-07-11T10:07:53.706Z,42.67
2018-07-11T10:10:22.814Z,42.15
2018-07-11T10:12:52.024Z,41.60
2018-07-11T10:15:21.094Z,41.48
2018-07-11T10:17:50.217Z,42.12
2018-07-11T10:20:22.246Z,41.99
2018-07-11T10:22:51.374Z,42.27
2018-07-11T10:25:20.518Z,42.58
2018-07-11T10:27:59.682Z,43.20
2018-07-11T10:30:28.794Z,44.33
2018-07-11T10:32:57.868Z,44.97
2018-07-11T10:35:27.029Z,45.06
2018-07-11T10:37:56.109Z,45.07
2018-07-11T10:40:25.254Z,45.38
2018-07-11T10:42:54.363Z,44.91
2018-07-11T10:45:23.465Z,45.06
2018-07-11T10:47:52.576Z,43.38
2018-07-11T10:50:21.734Z,42.81
2018-07-11T10:52:50.858Z,42.14
2018-07-11T10:55:19.908Z,41.35
2018-07-11T10:57:49.453Z,40.23
2018-07-11T11:00:36.550Z,40.06
2018-07-11T11:02:53.253Z,40.08
2018-07-11T11:05:22.667Z,40.02
2018-07-11T11:07:52.822Z,40.28
2018-07-11T11:10:21.926Z,40.52
2018-07-11T11:12:51.021Z,40.38
2018-07-11T11:15:20.108Z,40.13
2018-07-11T11:17:49.154Z,39.58
2018-07-11T11:20:18.281Z,38.80
2018-07-11T11:22:47.345Z,39.06
2018-07-11T11:25:16.413Z,39.19
2018-07-11T11:27:45.498Z,38.36
2018-07-11T11:30:14.566Z,37.78
2018-07-11T11:32:43.688Z,37.36
2018-07-11T11:35:12.817Z,36.70
2018-07-11T11:37:41.975Z,36.65
2018-07-11T11:40:11.109Z,36.77
2018-07-11T11:42:40.386Z,37.25
2018-07-11T11:45:09.449Z,37.40
2018-07-11T11:47:38.571Z,39.26
2018-07-11T11:50:07.790Z,40.04
2018-07-11T11:52:36.889Z,40.86
2018-07-11T11:55:06.006Z,40.61
2018-07-11T11:57:35.118Z,41.32
2018-07-11T12:00:04.281Z,41.38
2018-07-11T12:02:33.607Z,41.32
2018-07-11T12:05:02.727Z,41.95
2018-07-11T12:07:31.806Z,40.25
2018-07-11T12:10:00.934Z,40.86
2018-07-11T12:12:30.087Z,41.97
2018-07-11T12:14:59.175Z,40.75
2018-07-11T12:17:28.285Z,40.13
2018-07-11T12:19:57.377Z,40.96
2018-07-11T12:22:27.062Z,40.99
2018-07-11T12:24:56.203Z,41.66
2018-07-11T12:27:25.403Z,41.79
2018-07-11T12:29:54.546Z,41.04
2018-07-11T12:32:23.621Z,41.86
2018-07-11T12:34:53.167Z,40.81
2018-07-11T12:37:22.609Z,40.05
2018-07-11T12:39:51.851Z,40.45
2018-07-11T12:42:21.049Z,40.89
2018-07-11T12:44:50.321Z,40.35
2018-07-11T12:47:24.634Z,41.24
2018-07-11T12:49:53.781Z,40.34
2018-07-11T12:52:22.894Z,40.62
2018-07-11T12:54:52.049Z,40.52
2018-07-11T12:57:21.180Z,41.01
2018-07-11T12:59:50.353Z,41.17
2018-07-11T13:02:19.496Z,40.36
2018-07-11T13:04:48.597Z,39.44
2018-07-11T13:07:17.686Z,38.82
2018-07-11T13:09:46.798Z,39.53
2018-07-11T13:12:15.990Z,40.19
2018-07-11T13:14:45.122Z,40.18
2018-07-11T13:17:14.204Z,39.75
2018-07-11T13:19:43.299Z,40.34
2018-07-11T13:22:12.483Z,41.21
2018-07-11T13:24:41.592Z,41.97
2018-07-11T13:27:10.686Z,42.21
2018-07-11T13:29:39.822Z,42.38
2018-07-11T13:32:08.894Z,42.98
2018-07-11T13:34:38.322Z,43.25
2018-07-11T13:37:07.597Z,43.72
2018-07-11T13:39:36.715Z,44.53
2018-07-11T13:42:05.819Z,44.77
2018-07-11T13:44:34.938Z,45.27
2018-07-11T13:47:08.212Z,45.23
2018-07-11T13:49:37.331Z,45.42
2018-07-11T13:52:06.838Z,45.61
2018-07-11T13:54:36.043Z,46.09
2018-07-11T13:57:05.707Z,46.92
2018-07-11T13:59:34.809Z,48.71
2018-07-11T14:02:04.510Z,50.01
2018-07-11T14:04:33.613Z,50.83
2018-07-11T14:07:02.721Z,50.32
2018-07-11T14:09:32.087Z,50.42
2018-07-11T14:12:01.233Z,51.25
2018-07-11T14:14:30.608Z,50.52
2018-07-11T14:16:59.791Z,50.77
2018-07-11T14:19:43.383Z,50.53
2018-07-11T14:22:27.883Z,50.99
2018-07-11T14:25:12.044Z,51.21
2018-07-11T14:27:58.077Z,51.94
2018-07-11T14:30:29.907Z,52.38
2018-07-11T14:33:03.988Z,52.65
2018-07-11T14:35:34.430Z,54.11
2018-07-11T14:38:03.544Z,54.80
2018-07-11T14:40:32.750Z,55.32
2018-07-11T14:43:01.851Z,59.68
2018-07-11T14:45:32.973Z,63.34
2018-07-11T14:48:09.538Z,65.25
2018-07-11T14:50:38.803Z,67.46
2018-07-11T14:53:07.933Z,68.08
2018-07-11T14:55:37.054Z,69.14
2018-07-11T14:58:06.199Z,68.86
2018-07-11T15:00:35.331Z,69.16
2018-07-11T15:03:04.511Z,69.09
2018-07-11T15:05:41.800Z,68.02
2018-07-11T15:08:14.988Z,66.30
2018-07-11T15:10:44.280Z,64.08
2018-07-11T15:13:13.456Z,63.73
2018-07-11T15:15:45.226Z,62.94
2018-07-11T15:18:16.954Z,62.24
2018-07-11T15:20:48.524Z,61.76
2018-07-11T15:23:31.480Z,61.11
2018-07-11T15:26:16.891Z,61.01
2018-07-11T15:29:03.529Z,60.11
2018-07-11T15:31:40.957Z,60.18
2018-07-11T15:34:30.039Z,60.10
2018-07-11T15:37:15.149Z,60.96
2018-07-11T15:40:03.046Z,61.13
2018-07-11T15:42:50.822Z,61.41
2018-07-11T15:45:31.053Z,61.89
2018-07-11T15:48:18.690Z,61.92
2018-07-11T15:50:52.060Z,62.50
2018-07-11T15:53:22.279Z,62.60
2018-07-11T15:55:53.080Z,62.70
2018-07-11T15:58:23.002Z,66.06
2018-07-11T16:00:52.447Z,68.80
2018-07-11T16:03:21.911Z,70.13
2018-07-11T16:05:52.476Z,72.09
2018-07-11T16:08:21.746Z,73.37
2018-07-11T16:10:53.385Z,73.94
2018-07-11T16:13:22.656Z,75.12
2018-07-11T16:15:52.332Z,77.03
2018-07-11T16:18:22.093Z,78.96
2018-07-11T16:20:52.153Z,79.82
2018-07-11T16:23:22.320Z,80.85
2018-07-11T16:25:52.043Z,81.84
2018-07-11T16:28:21.948Z,80.74
2018-07-11T16:30:51.106Z,82.09
2018-07-11T16:33:20.448Z,80.79
2018-07-11T16:35:49.618Z,80.40
2018-07-11T16:38:18.725Z,81.54
2018-07-11T16:40:47.915Z,80.75
2018-07-11T16:43:17.067Z,80.28
2018-07-11T16:45:46.368Z,77.37
2018-07-11T16:48:15.750Z,78.17
2018-07-11T16:50:44.937Z,78.30
2018-07-11T16:53:14.099Z,78.24
2018-07-11T16:55:43.277Z,78.46
2018-07-11T16:58:16.517Z,79.55
2018-07-11T17:00:47.893Z,80.58
2018-07-11T17:03:23.193Z,82.60
2018-07-11T17:06:04.551Z,82.94
2018-07-11T17:08:39.982Z,85.51
2018-07-11T17:11:24.111Z,87.36
2018-07-11T17:14:04.989Z,90.45
2018-07-11T17:16:48.642Z,95.58
2018-07-11T17:32:21.929Z,100.00
2018-07-11T17:34:58.565Z,100.00
2018-07-11T17:37:38.343Z,100.00
2018-07-11T17:40:12.969Z,100.00
2018-07-11T17:42:45.946Z,100.00
2018-07-11T17:45:21.242Z,100.00
2018-07-11T18:04:33.196Z,100.00
2018-07-11T18:07:17.112Z,100.00
2018-07-11T18:10:07.037Z,100.00
2018-07-11T18:12:54.179Z,100.00
2018-07-11T18:15:31.923Z,100.00
2018-07-11T18:18:39.670Z,100.00
2018-07-11T18:21:21.172Z,100.00
2018-07-11T18:24:06.349Z,99.48
2018-07-11T18:27:01.576Z,100.00
2018-07-11T18:29:42.072Z,100.00
2018-07-11T18:33:27.465Z,100.00
2018-07-11T18:36:07.581Z,98.69
2018-07-11T18:38:44.924Z,96.61
2018-07-11T18:41:28.697Z,97.93
2018-07-11T18:44:05.487Z,97.22
2018-07-11T18:47:44.357Z,96.45
2018-07-11T18:50:22.879Z,94.60
2018-07-11T18:52:55.456Z,95.16
2018-07-11T18:55:39.368Z,96.71
2018-07-11T18:58:16.456Z,95.70
2018-07-11T19:01:24.712Z,97.51
2018-07-11T19:06:44.219Z,96.35
2018-07-11T19:09:24.567Z,96.72
2018-07-11T19:12:00.939Z,95.80
2018-07-11T19:14:42.697Z,94.91
2018-07-11T19:17:37.799Z,95.99
2018-07-11T19:21:16.332Z,96.63
2018-07-11T19:24:00.312Z,96.90
2018-07-11T19:26:36.636Z,96.80
2018-07-11T19:29:25.325Z,95.78
2018-07-11T19:32:04.112Z,96.31
2018-07-11T19:36:52.422Z,95.86
2018-07-11T19:40:35.328Z,94.77
2018-07-11T19:43:13.741Z,95.69
2018-07-11T19:45:51.538Z,95.76
2018-07-11T19:49:32.084Z,94.64
2018-07-11T19:52:22.980Z,94.40
2018-07-11T19:57:06.563Z,93.96
2018-07-11T19:59:35.940Z,94.56
2018-07-11T20:02:05.119Z,93.85
2018-07-11T20:04:34.290Z,93.63
2018-07-11T20:07:03.380Z,93.95
2018-07-11T20:09:32.528Z,93.28
2018-07-11T20:12:01.692Z,93.65
2018-07-11T20:14:31.289Z,92.97
2018-07-11T20:17:00.437Z,92.71
2018-07-11T20:19:29.846Z,92.99
2018-07-11T20:21:59.392Z,93.69
2018-07-11T20:24:29.080Z,95.23
2018-07-11T20:26:58.850Z,95.50
2018-07-11T20:29:28.316Z,95.03
2018-07-11T20:31:57.931Z,95.02
2018-07-11T20:34:27.550Z,94.11
2018-07-11T20:36:57.372Z,93.46
2018-07-11T20:39:26.525Z,93.61
2018-07-11T20:41:55.695Z,94.32
2018-07-11T20:44:24.851Z,94.01
2018-07-11T20:46:54.257Z,93.97
2018-07-11T20:49:28.778Z,93.68
2018-07-11T20:52:00.880Z,93.96
2018-07-11T20:54:30.012Z,94.34
2018-07-11T20:56:59.242Z,95.02
2018-07-11T20:59:39.430Z,95.12
2018-07-11T21:02:19.863Z,95.00
2018-07-11T21:07:06.547Z,95.34
2018-07-11T21:10:44.243Z,96.34
2018-07-11T21:14:26.156Z,96.61
2018-07-11T21:17:24.651Z,98.04
2018-07-11T21:19:53.801Z,97.77
2018-07-11T21:22:22.957Z,97.12
2018-07-11T21:24:52.523Z,96.82
2018-07-11T21:27:21.705Z,96.58
2018-07-11T21:29:50.771Z,97.35
2018-07-11T21:32:20.038Z,97.10
2018-07-11T21:34:49.158Z,97.10
2018-07-11T21:37:18.255Z,96.82
2018-07-11T21:39:47.403Z,96.55
2018-07-11T21:42:16.540Z,96.67
2018-07-11T21:44:45.650Z,96.53
2018-07-11T21:47:14.878Z,96.47
2018-07-11T21:49:44.017Z,96.01
2018-07-11T21:52:13.080Z,96.01
2018-07-11T21:54:42.202Z,96.23
2018-07-11T21:57:11.293Z,96.18
2018-07-11T21:59:40.385Z,95.40
2018-07-11T22:02:09.459Z,95.02
2018-07-11T22:04:38.673Z,95.17
2018-07-11T22:07:07.783Z,94.72
2018-07-11T22:09:36.891Z,94.63
2018-07-11T22:12:06.211Z,95.03
2018-07-11T22:14:35.339Z,94.37
2018-07-11T22:17:15.641Z,94.28
2018-07-11T22:19:43.577Z,94.54
2018-07-11T22:22:11.485Z,94.69
2018-07-11T22:24:39.407Z,94.45
2018-07-11T22:27:07.329Z,94.28
2018-07-11T22:29:35.237Z,93.92
2018-07-11T22:32:03.190Z,93.96
2018-07-11T22:34:31.110Z,94.14
2018-07-11T22:36:59.056Z,94.04
2018-07-11T22:39:26.970Z,93.83
2018-07-11T22:41:54.896Z,94.43
2018-07-11T22:44:22.823Z,93.15
2018-07-11T22:46:50.749Z,93.48
2018-07-11T22:49:18.833Z,92.67
2018-07-11T22:51:46.747Z,92.64
2018-07-11T22:54:14.694Z,92.39
2018-07-11T22:56:42.573Z,91.98
2018-07-11T22:59:10.500Z,92.90
2018-07-11T23:01:38.436Z,92.72
2018-07-11T23:04:06.345Z,92.95
2018-07-11T23:06:34.245Z,92.22
2018-07-11T23:11:36.426Z,92.26
2018-07-11T23:14:04.356Z,92.30
2018-07-11T23:16:32.288Z,92.47
2018-07-11T23:19:00.246Z,92.50
2018-07-11T23:21:28.185Z,92.60
2018-07-11T23:23:56.096Z,92.88
2018-07-11T23:26:24.021Z,93.56
2018-07-11T23:28:51.984Z,93.26
2018-07-11T23:31:19.926Z,94.07
2018-07-11T23:33:47.861Z,93.67
2018-07-11T23:36:15.833Z,93.89
2018-07-11T23:38:43.826Z,94.60
2018-07-11T23:41:11.690Z,94.30
2018-07-11T23:43:39.633Z,94.42
2018-07-11T23:46:07.555Z,93.53
2018-07-11T23:48:35.622Z,93.72
2018-07-11T23:51:03.542Z,93.79
2018-07-11T23:53:31.467Z,94.14
2018-07-11T23:55:59.416Z,94.18
2018-07-11T23:58:27.348Z,94.43
